createdAt,value
2018-12-27T00:00:11.455Z,92.31
2018-12-27T00:03:30.625Z,92.32
2018-12-27T00:06:39.242Z,92.15
2018-12-27T00:09:47.759Z,91.89
2018-12-27T00:13:08.182Z,92.08
2018-12-27T00:16:28.945Z,91.90
2018-12-27T00:19:48.899Z,92.10
2018-12-27T00:23:11.376Z,92.10
2018-12-27T00:30:40.467Z,92.41
2018-12-27T00:33:49.317Z,92.32
2018-12-27T00:36:58.264Z,92.97
2018-12-27T00:40:08.150Z,92.58
2018-12-27T00:43:17.479Z,92.63
2018-12-27T00:46:38.449Z,92.25
2018-12-27T00:53:36.663Z,91.94
2018-12-27T00:57:07.869Z,92.11
2018-12-27T01:00:16.736Z,92.11
2018-12-27T01:03:25.608Z,91.88
2018-12-27T01:06:34.431Z,91.08
2018-12-27T01:09:43.270Z,91.43
2018-12-27T01:12:52.202Z,90.89
2018-12-27T01:16:02.298Z,90.76
2018-12-27T01:19:11.283Z,90.95
2018-12-27T01:22:20.213Z,91.28
2018-12-27T01:25:29.043Z,91.07
2018-12-27T01:28:38.057Z,90.93
2018-12-27T01:31:50.572Z,91.75
2018-12-27T01:34:57.638Z,91.03
2018-12-27T01:38:06.508Z,90.88
2018-12-27T01:41:15.375Z,91.09
2018-12-27T01:44:24.181Z,91.11
2018-12-27T01:47:32.983Z,91.47
2018-12-27T01:50:41.884Z,91.21
2018-12-27T01:54:01.362Z,90.61
2018-12-27T01:57:33.535Z,90.56
2018-12-27T02:00:42.466Z,90.66
2018-12-27T02:04:13.441Z,90.81
2018-12-27T02:07:33.423Z,90.58
2018-12-27T02:10:53.407Z,91.16
2018-12-27T02:14:24.365Z,91.04
2018-12-27T02:17:44.392Z,90.85
2018-12-27T02:20:53.197Z,90.92
2018-12-27T02:24:02.139Z,91.18
2018-12-27T02:27:11.052Z,90.76
2018-12-27T02:30:19.913Z,90.74
2018-12-27T02:33:35.216Z,91.43
2018-12-27T02:36:51.456Z,90.82
2018-12-27T02:40:00.376Z,90.08
2018-12-27T02:43:09.003Z,90.20
2018-12-27T02:46:36.981Z,90.07
2018-12-27T02:49:45.997Z,90.28
2018-12-27T02:52:54.918Z,89.96
2018-12-27T02:56:03.874Z,90.66
2018-12-27T02:59:14.840Z,90.18
2018-12-27T03:02:23.778Z,90.20
2018-12-27T03:05:32.583Z,90.18
2018-12-27T03:08:41.929Z,90.27
2018-12-27T03:15:30.281Z,90.10
2018-12-27T03:18:39.277Z,90.09
2018-12-27T03:22:24.820Z,90.02
2018-12-27T03:25:33.741Z,89.82
2018-12-27T03:28:42.782Z,89.55
2018-12-27T03:31:51.642Z,90.34
2018-12-27T03:35:00.457Z,90.59
2018-12-27T03:38:09.291Z,89.85
2018-12-27T03:41:18.173Z,90.23
2018-12-27T03:44:27.169Z,90.90
2018-12-27T03:48:00.387Z,90.63
2018-12-27T03:51:20.662Z,90.79
2018-12-27T03:54:29.640Z,90.87
2018-12-27T03:58:20.538Z,91.42
2018-12-27T04:01:51.086Z,91.00
2018-12-27T04:05:23.622Z,91.02
2018-12-27T04:08:31.130Z,91.30
2018-12-27T04:11:39.968Z,90.78
2018-12-27T04:14:48.858Z,91.15
2018-12-27T04:17:57.478Z,91.11
2018-12-27T04:21:06.005Z,91.53
2018-12-27T04:24:15.414Z,91.21
2018-12-27T04:27:24.071Z,91.41
2018-12-27T04:30:51.759Z,91.45
2018-12-27T04:34:00.065Z,91.69
2018-12-27T04:37:27.778Z,91.41
2018-12-27T04:40:36.486Z,91.19
2018-12-27T04:43:45.777Z,91.47
2018-12-27T04:51:02.746Z,91.86
2018-12-27T04:54:22.688Z,91.57
2018-12-27T04:57:42.542Z,92.12
2018-12-27T05:01:03.402Z,91.71
2018-12-27T05:04:18.116Z,92.22
2018-12-27T05:07:22.238Z,92.12
2018-12-27T05:10:30.739Z,92.07
2018-12-27T05:13:39.353Z,92.37
2018-12-27T05:16:48.040Z,92.39
2018-12-27T05:19:56.611Z,92.76
2018-12-27T05:23:27.402Z,92.22
2018-12-27T05:26:47.976Z,92.38
2018-12-27T05:29:56.626Z,92.35
2018-12-27T05:33:05.182Z,92.38
2018-12-27T05:36:13.649Z,92.12
2018-12-27T05:43:37.560Z,92.33
2018-12-27T05:46:57.390Z,92.41
2018-12-27T05:50:05.925Z,92.09
2018-12-27T05:53:14.505Z,92.49
2018-12-27T05:56:22.988Z,91.65
2018-12-27T05:59:31.650Z,91.85
2018-12-27T06:03:15.669Z,91.73
2018-12-27T06:10:41.435Z,91.73
2018-12-27T06:14:16.537Z,91.56
2018-12-27T06:17:36.729Z,91.96
2018-12-27T06:20:56.715Z,91.91
2018-12-27T06:24:41.993Z,91.99
2018-12-27T06:28:06.226Z,91.48
2018-12-27T06:31:14.722Z,91.50
2018-12-27T06:34:41.357Z,91.40
2018-12-27T06:38:11.130Z,91.13
2018-12-27T06:41:30.999Z,91.23
2018-12-27T06:45:16.117Z,91.91
2018-12-27T06:48:48.357Z,92.14
2018-12-27T06:52:18.985Z,91.93
2018-12-27T06:55:38.192Z,91.72
2018-12-27T06:58:46.771Z,91.93
2018-12-27T07:01:55.230Z,91.70
2018-12-27T07:05:03.727Z,91.87
2018-12-27T07:08:12.204Z,91.75
2018-12-27T07:11:47.176Z,91.44
2018-12-27T07:19:20.619Z,91.67
2018-12-27T07:30:44.341Z,91.33
2018-12-27T07:45:38.251Z,90.25
2018-12-27T07:48:57.328Z,90.40
2018-12-27T07:52:05.974Z,90.83
2018-12-27T07:55:14.563Z,90.65
2018-12-27T07:58:23.177Z,90.85
2018-12-27T08:01:31.652Z,91.01
2018-12-27T08:04:40.139Z,90.43
2018-12-27T08:24:29.848Z,89.99
2018-12-27T09:19:50.810Z,90.99
2018-12-27T09:22:59.279Z,91.23
2018-12-27T09:26:07.760Z,90.89
2018-12-27T09:29:16.378Z,91.12
2018-12-27T09:32:24.962Z,91.50
2018-12-27T09:35:33.489Z,91.22
2018-12-27T09:38:40.472Z,91.48
2018-12-27T09:41:48.959Z,91.62
2018-12-27T09:44:57.475Z,91.72
2018-12-27T09:48:05.998Z,90.70
2018-12-27T09:51:14.569Z,90.55
2018-12-27T09:54:23.053Z,90.91
2018-12-27T10:05:16.838Z,91.25
2018-12-27T10:19:50.109Z,91.57
2018-12-27T10:26:51.472Z,91.49
2018-12-27T10:34:33.768Z,91.76
2018-12-27T10:45:29.411Z,91.08
2018-12-27T10:48:37.922Z,91.54
2018-12-27T10:51:46.386Z,91.81
2018-12-27T11:49:52.368Z,91.32
2018-12-27T12:04:33.412Z,91.39
2018-12-27T12:15:17.001Z,90.47
2018-12-27T13:05:12.837Z,90.72
2018-12-27T13:19:49.136Z,90.25
2018-12-27T15:04:30.007Z,89.57
2018-12-27T15:59:09.097Z,89.36
2018-12-27T16:02:17.601Z,89.71
2018-12-27T16:16:48.877Z,90.49
2018-12-27T16:20:07.858Z,90.56
2018-12-27T16:23:16.359Z,90.86
2018-12-27T16:26:24.850Z,90.05
2018-12-27T16:29:33.411Z,90.50
2018-12-27T16:32:41.925Z,90.67
2018-12-27T16:36:00.975Z,90.55
2018-12-27T16:39:09.770Z,90.41
2018-12-27T16:42:21.751Z,90.75
2018-12-27T16:45:28.620Z,90.52
2018-12-27T16:48:37.109Z,91.06
2018-12-27T16:51:45.594Z,91.03
2018-12-27T16:55:04.451Z,90.69
2018-12-27T16:58:13.018Z,91.06
2018-12-27T17:01:21.522Z,90.81
2018-12-27T17:04:30.022Z,90.68
2018-12-27T19:46:48.020Z,89.44
2018-12-27T19:50:06.895Z,89.77
2018-12-27T19:53:15.414Z,90.16
2018-12-27T19:56:23.913Z,89.99
2018-12-27T20:07:20.919Z,89.74
2018-12-27T20:10:39.958Z,89.04
2018-12-27T20:25:31.264Z,89.25
2018-12-27T20:28:39.785Z,89.18
2018-12-27T20:31:48.290Z,89.50
2018-12-27T20:34:56.859Z,89.79
2018-12-27T20:38:06.800Z,90.07
2018-12-27T20:41:15.665Z,89.78
2018-12-27T20:44:34.609Z,89.85
2018-12-27T21:07:10.793Z,89.23
2018-12-27T21:10:18.491Z,89.21
2018-12-27T21:13:27.009Z,89.56
2018-12-27T21:16:35.756Z,89.92
2018-12-27T21:19:44.344Z,90.24
2018-12-27T21:22:52.891Z,89.68
2018-12-27T22:35:11.276Z,89.49
2018-12-27T22:38:19.933Z,89.36
2018-12-27T22:41:28.558Z,89.80
2018-12-27T22:44:37.074Z,89.68
2018-12-27T22:47:45.751Z,89.54
2018-12-27T22:50:54.357Z,90.35
2018-12-27T22:54:02.937Z,90.35
2018-12-27T22:57:10.695Z,90.52
2018-12-27T23:00:36.337Z,90.34
2018-12-27T23:15:14.448Z,90.30
2018-12-27T23:38:39.736Z,89.69
2018-12-27T23:41:48.209Z,89.81
